Tuesday, November 21, 2017, 10:51 AM EST
Back to Local

KJYO, Leesburg / Godfrey

Location: Leesburg, VA, United States Lat: 39.083
Local Time: 10:51 AM EST (15:51 GMT) Lon: -77.567
Time Zone: US/Eastern Elev: 390 ft

Show me the last for .
Show Coded

Time T Td Feel RH Dir Speed Gust Alt SLP Vis Weather Sky Remarks
2017-11-21 10:35 52 32 - 46 190° 6 - 30.11 - 10 CLR None
2017-11-21 10:15 48 32 47 53 220° 3 - 30.12 - 10 CLR None
2017-11-21 09:55 46 32 - 56 - Calm - 30.13 - 10 CLR None
2017-11-21 09:35 45 32 43 61 180° 3 - 30.14 - 10 CLR None
2017-11-21 09:15 43 32 40 65 190° 5 - 30.13 - 10 CLR None
2017-11-21 08:55 41 32 37 70 190° 6 - 30.13 - 10 CLR None
2017-11-21 08:35 37 32 - 80 - Calm - 30.13 - 10 CLR None
2017-11-21 08:15 36 30 33 80 190° 3 - 30.13 - 10 CLR None
2017-11-21 07:55 34 30 - 86 - Calm - 30.13 - 10 CLR None
2017-11-21 07:35 32 28 29 86 200° 3 - 30.13 - 10 CLR None
2017-11-21 07:15 32 28 26 86 190° 6 - 30.13 - 10 CLR None
2017-11-21 06:55 32 28 29 86 200° 3 - 30.13 - 10 CLR None
2017-11-21 06:35 32 28 - 86 - Calm - 30.13 - 10 CLR None
2017-11-21 06:15 30 28 - 92 - Calm - 30.13 - 10 CLR None
2017-11-21 05:55 32 28 - 86 - Calm - 30.12 - 10 CLR None
2017-11-21 05:35 30 27 - 86 - Calm - 30.12 - 10 CLR None
2017-11-21 05:15 32 28 - 86 - Calm - 30.11 - 10 CLR None
2017-11-21 04:55 32 28 - 86 - Calm - 30.12 - 10 CLR None
2017-11-21 04:35 32 28 - 86 - Calm - 30.12 - 10 CLR None
2017-11-21 04:15 34 28 - 80 - Calm - 30.12 - 10 CLR None
2017-11-21 03:55 32 28 27 86 190° 5 - 30.12 - 10 CLR None
2017-11-21 03:35 32 28 27 86 210° 5 - 30.13 - 10 CLR None
2017-11-21 03:15 32 28 26 86 190° 6 - 30.12 - 10 CLR None
2017-11-21 02:55 36 28 32 74 190° 5 - 30.13 - 10 CLR None
2017-11-21 02:35 34 28 30 80 200° 5 - 30.14 - 10 CLR None
2017-11-21 02:15 36 28 31 74 190° 6 - 30.14 - 10 CLR None
2017-11-21 01:55 36 28 32 74 200° 5 - 30.14 - 10 CLR None
2017-11-21 01:35 36 28 32 74 200° 5 - 30.14 - 10 CLR None
2017-11-21 01:15 36 28 32 74 200° 5 - 30.14 - 10 CLR None
2017-11-21 00:55 36 28 31 74 200° 6 - 30.16 - 10 CLR None
2017-11-21 00:35 34 28 29 80 210° 6 - 30.16 - 10 CLR None
2017-11-21 00:15 34 28 30 80 210° 5 - 30.17 - 10 CLR None
2017-11-20 23:55 32 30 29 92 210° 3 - 30.17 - 10 CLR None
2017-11-20 23:35 34 28 31 80 220° 3 - 30.17 - 10 CLR None
2017-11-20 23:15 36 28 33 74 200° 3 - 30.17 - 10 CLR None
2017-11-20 22:55 34 30 - 86 - Calm - 30.18 - 10 CLR None
2017-11-20 22:35 34 28 31 80 220° 3 - 30.18 - 10 CLR None
2017-11-20 22:15 36 30 33 80 200° 3 - 30.17 - 10 CLR None
2017-11-20 21:55 36 28 33 74 210° 3 - 30.17 - 10 CLR None
2017-11-20 21:35 37 28 34 69 200° 5 - 30.17 - 10 CLR None
2017-11-20 21:15 41 27 37 56 190° 6 - 30.18 - 10 CLR None
2017-11-20 20:55 43 27 41 52 180° 3 - 30.18 - 10 CLR None
2017-11-20 20:35 41 27 39 56 150° 3 - 30.18 - 10 CLR None
2017-11-20 20:15 43 27 - 52 - Calm - 30.16 - 10 CLR None
2017-11-20 19:55 43 27 40 52 210° 5 - 30.17 - 10 CLR None
2017-11-20 19:35 43 27 41 52 220° 3 - 30.16 - 10 CLR None
2017-11-20 19:15 45 27 43 48 230° 3 - 30.16 - 10 CLR None
2017-11-20 18:55 45 27 43 48 240° 3 - 30.16 - 10 CLR None
2017-11-20 18:35 45 27 42 48 220° 5 - 30.16 - 10 CLR None
2017-11-20 18:15 45 27 41 48 210° 6 - 30.17 - 10 CLR None
2017-11-20 17:55 45 27 41 48 210° 6 - 30.17 - 10 CLR None
2017-11-20 17:35 46 27 43 45 210° 7 - 30.16 - 10 CLR None
2017-11-20 17:15 46 27 44 45 190° 6 - 30.16 - 10 CLR None
2017-11-20 16:55 48 27 45 42 200° 7 - 30.16 - 10 CLR None
2017-11-20 16:35 50 25 48 37 230° 5 - 30.16 - 10 CLR None
2017-11-20 16:15 52 27 - 37 230° 8 - 30.16 - 10 CLR None
2017-11-20 15:55 52 27 - 37 220° 9 - 30.16 - 10 CLR None
2017-11-20 15:35 52 25 - 34 220° 5 - 30.16 - 10 CLR None
2017-11-20 15:15 52 27 - 37 220° 5 - 30.16 - 10 CLR None
2017-11-20 14:55 52 27 - 37 270° 14 17 30.16 - 10 CLR None
2017-11-20 14:35 52 25 - 34 250° 7 17 30.16 - 10 CLR None
2017-11-20 14:15 52 27 - 37 240° 8 - 30.16 - 10 CLR None
2017-11-20 13:55 52 27 - 37 260° 9 - 30.16 - 10 CLR None
2017-11-20 13:35 52 27 - 37 260° 10 - 30.17 - 10 CLR None
2017-11-20 13:15 50 27 47 39 280° 7 - 30.18 - 10 CLR None
2017-11-20 12:55 50 27 44 39 270° 13 16 30.18 - 10 CLR None
2017-11-20 12:35 48 27 43 42 290° 12 - 30.18 - 10 CLR None
2017-11-20 12:15 48 27 45 42 210° 7 - 30.19 - 10 CLR None
2017-11-20 11:55 46 27 44 45 260° 5 - 30.19 - 10 CLR None
2017-11-20 11:35 45 27 41 48 270° 7 - 30.20 - 10 CLR None
2017-11-20 11:15 45 27 40 48 260° 9 - 30.21 - 10 CLR None
2017-11-20 10:55 45 27 38 48 300° 13 - 30.21 - 10 CLR None

Support USWX by starting your Amazon purchase here.